Flight Track Log - Related Links

Times and Time Zones

All times are in EDT time to prevent confusion due to time zone crossing. See the AAL1450 flight status page for this flight to view local times or setup timezone preferences in your user account.

Time Position Orientation Groundspeed Altitude Reporting Facility
EDT Latitude Longitude Course Direction KTS MPH feet Rate Location/Type
Tue 08:23:31 AM 41.9431 -87.9062 183° South 137 158 1,900  Level FlightAware ADS-B
Tue 08:24:22 AM 41.9040 -87.8975 171° South 190 219 3,200 1,612 Climbing FlightAware ADS-B
Tue 08:24:38 AM 41.8788 -87.8934 173° South 232 267 3,700 1,227 Climbing FlightAware ADS-B
Tue 08:25:06 AM 41.8591 -87.8903 172° South 254 292 4,100 1,552 Climbing FlightAware ADS-B
Tue 08:25:36 AM 41.8241 -87.8847 174° South 273 314 5,200 1,778 Climbing FlightAware ADS-B
Tue 08:26:00 AM 41.8100 -87.8827 174° South 274 315 5,700 2,800 Climbing FlightAware ADS-B
Tue 08:26:21 AM 41.7643 -87.8764 174° South 279 321 7,300 4,098 Climbing FlightAware ADS-B
Tue 08:26:41 AM 41.7386 -87.8725 173° South 280 322 8,500 3,568 Climbing FlightAware ADS-B
Tue 08:26:58 AM 41.6998 -87.8675 174° South 297 342 9,500 2,182 Climbing FlightAware ADS-B
Tue 08:27:14 AM 41.6949 -87.8668 174° South 299 344 9,700 1,957 Climbing FlightAware ADS-B
Tue 08:27:44 AM 41.6516 -87.8601 173° South 308 354 11,000 2,656 Climbing FlightAware ADS-B
Tue 08:28:15 AM 41.6074 -87.8532 174° South 322 371 12,400 2,226 Climbing FlightAware ADS-B
Tue 08:28:46 AM 41.5594 -87.8462 174° South 354 407 13,300 2,164 Climbing FlightAware ADS-B
Tue 08:29:16 AM 41.5114 -87.8394 175° South 369 425 14,600 4,737 Climbing FlightAware ADS-B
Tue 08:29:24 AM 41.4964 -87.8376 174° South 363 418 16,300 3,286 Climbing FlightAware ADS-B
Tue 08:29:58 AM 41.4372 -87.8221 161° South 377 434 16,900 1,938 Climbing FlightAware ADS-B
Tue 08:30:29 AM 41.3914 -87.7996 159° South 384 442 18,400 2,914 Climbing FlightAware ADS-B
Tue 08:31:08 AM 41.3216 -87.7648 159° South 392 451 20,300 2,550 Climbing FlightAware ADS-B
Tue 08:31:49 AM 41.2504 -87.7288 159° South 407 468 21,800 1,808 Climbing FlightAware ADS-B
Tue 08:32:21 AM 41.1919 -87.6992 159° South 432 497 22,500 1,553 Climbing FlightAware ADS-B
Tue 08:33:14 AM 41.0911 -87.6489 159° South 444 511 24,000 1,143 Climbing FlightAware ADS-B
Tue 08:33:45 AM 41.0310 -87.6190 159° South 445 512 24,100 885 Climbing FlightAware ADS-B
Tue 08:34:15 AM 40.9776 -87.5925 159° South 451 519 24,900 1,629 Climbing FlightAware ADS-B
Tue 08:34:55 AM 40.8942 -87.5512 159° South 456 525 26,000 943 Climbing FlightAware ADS-B
Tue 08:35:25 AM 40.8361 -87.5225 160° South 457 526 26,000  Level FlightAware ADS-B
Tue 08:35:55 AM 40.7754 -87.4926 160° South 456 525 26,000 750 Level FlightAware ADS-B
Tue 08:36:45 AM 40.6759 -87.4437 159° South 467 537 27,000 1,425 Climbing FlightAware ADS-B
Tue 08:37:15 AM 40.6188 -87.4158 160° South 474 545 27,900 857 Climbing FlightAware ADS-B
Tue 08:37:55 AM 40.5375 -87.3760 160° South 475 547 28,000 86 Climbing FlightAware ADS-B
Tue 08:38:25 AM 40.4705 -87.3419 156° South 474 545 28,000 390 Level FlightAware ADS-B
Tue 08:39:12 AM 40.3848 -87.2722 144° Southeast 475 547 28,500 1,125 Climbing FlightAware ADS-B
Tue 08:39:45 AM 40.3330 -87.2238 144° Southeast 477 549 29,500 2,190 Climbing FlightAware ADS-B
Tue 08:40:15 AM 40.2723 -87.1672 144° Southeast 471 542 30,800 2,308 Climbing FlightAware ADS-B
Tue 08:41:03 AM 40.2503 -87.1466 144° Southeast 465 535 32,500 1,769 Climbing FlightAware ADS-B
Tue 08:41:33 AM 40.1437 -87.0473 145° Southeast 470 541 33,100 1,417 Climbing FlightAware ADS-B
Tue 08:42:15 AM 40.0606 -86.9706 145° Southeast 471 542 34,200 1,481 Climbing FlightAware ADS-B
Tue 08:42:54 AM 39.9918 -86.9081 145° Southeast 474 545 35,100 1,143 Climbing FlightAware ADS-B
Tue 08:46:27 AM 39.6360 -86.5395 111° Southeast 455 524 39,000 925 Climbing FlightAware ADS-B
Tue 08:47:07 AM 39.6047 -86.4353 112° Southeast 457 526 39,000  Level FlightAware ADS-B
Tue 08:48:37 AM 39.5361 -86.2267 112° Southeast 466 536 39,000  Level Chicago Center
Tue 08:49:32 AM 39.4908 -86.0747 111° Southeast 462 532 39,000  Level Indianapolis Center
Tue 08:55:16 AM 39.2171 -85.2205 113° Southeast 442 509 39,000  Level FlightAware ADS-B (KCVG)
Tue 08:56:51 AM 39.1522 -85.0229 113° Southeast 443 510 39,000  Level FlightAware ADS-B
Tue 08:57:42 AM 39.1009 -84.8671 113° Southeast 442 509 39,000  Level FlightAware ADS-B
Tue 08:58:22 AM 39.0694 -84.7717 113° Southeast 441 507 39,000  Level FlightAware ADS-B
Tue 08:58:55 AM 39.0442 -84.6960 113° Southeast 441 507 39,000  Level FlightAware ADS-B
Tue 08:59:25 AM 39.0196 -84.6220 113° Southeast 443 510 39,000  Level FlightAware ADS-B
Tue 08:59:58 AM 38.9926 -84.5409 113° Southeast 443 510 39,000  Level FlightAware ADS-B (KCVG)
Tue 09:00:37 AM 38.9608 -84.4459 113° Southeast 442 509 39,000  Level FlightAware ADS-B (KCVG)
Tue 09:01:13 AM 38.9320 -84.3599 113° Southeast 441 507 39,000  Level FlightAware ADS-B
Tue 09:01:45 AM 38.9078 -84.2881 113° Southeast 440 506 39,000  Level FlightAware ADS-B
Tue 09:02:16 AM 38.8824 -84.2131 114° Southeast 439 505 39,000  Level FlightAware ADS-B
Tue 09:02:49 AM 38.8543 -84.1297 113° Southeast 439 505 39,000  Level FlightAware ADS-B
Tue 09:03:19 AM 38.8304 -84.0595 114° Southeast 438 504 39,000  Level FlightAware ADS-B
Tue 09:03:49 AM 38.8059 -83.9873 113° Southeast 438 504 39,000  Level FlightAware ADS-B
Tue 09:04:29 AM 38.7739 -83.8937 114° Southeast 438 504 39,000  Level FlightAware ADS-B
Tue 09:04:59 AM 38.7495 -83.8225 114° Southeast 438 504 39,000  Level FlightAware ADS-B
Tue 09:05:29 AM 38.7249 -83.7506 114° Southeast 438 504 39,000  Level FlightAware ADS-B
Tue 09:06:00 AM 38.6998 -83.6777 114° Southeast 440 506 39,000  Level FlightAware ADS-B
Tue 09:06:30 AM 38.6757 -83.6083 114° Southeast 440 506 39,000  Level FlightAware ADS-B
Tue 09:07:00 AM 38.6506 -83.5357 114° Southeast 440 506 39,000  Level FlightAware ADS-B
Tue 09:07:30 AM 38.6266 -83.4666 114° Southeast 440 506 39,000  Level FlightAware ADS-B
Tue 09:08:10 AM 38.5928 -83.3693 114° Southeast 441 507 39,000  Level FlightAware ADS-B
Tue 09:08:40 AM 38.5680 -83.2980 114° Southeast 441 507 39,000  Level FlightAware ADS-B
Tue 09:09:20 AM 38.5348 -83.2032 114° Southeast 442 509 39,000  Level FlightAware ADS-B
Tue 09:09:50 AM 38.5094 -83.1306 114° Southeast 444 511 39,000  Level FlightAware ADS-B
Tue 09:10:29 AM 38.4775 -83.0398 114° Southeast 444 511 39,000  Level FlightAware ADS-B
Tue 09:11:12 AM 38.4416 -82.9382 114° Southeast 445 512 39,000  Level FlightAware ADS-B
Tue 09:11:42 AM 38.4156 -82.8649 114° Southeast 446 513 39,000  Level FlightAware ADS-B
Tue 09:12:17 AM 38.3900 -82.7914 114° Southeast 444 511 39,000  Level Indianapolis Center
Tue 09:13:19 AM 38.3389 -82.6483 114° Southeast 444 511 39,000 -435 Level Indianapolis Center
Tue 09:14:21 AM 38.2864 -82.5033 115° Southeast 445 512 38,100 -919 Descending Indianapolis Center
Tue 09:15:23 AM 38.2328 -82.3539 115° Southeast 446 513 37,100 -968 Descending Indianapolis Center
Tue 09:16:25 AM 38.1803 -82.2100 115° Southeast 447 514 36,100 -919 Descending Indianapolis Center
Tue 09:17:27 AM 38.1275 -82.0639 115° Southeast 453 521 35,200 -1,008 Descending Indianapolis Center
Tue 09:18:30 AM 38.0633 -81.8883 115° Southeast 455 524 34,000 -1,008 Descending Indianapolis Center
Tue 09:19:32 AM 38.0089 -81.7397 115° Southeast 461 531 33,100 -726 Descending Indianapolis Center
Tue 09:25:23 AM 37.6750 -80.8677 117° Southeast 454 522 29,000 -853 Descending FlightAware ADS-B
Tue 09:27:09 AM 37.5746 -80.6235 117° Southeast 454 522 26,600 -1,234 Descending FlightAware ADS-B
Tue 09:28:18 AM 37.5100 -80.4678 117° Southeast 429 494 25,400 -1,080 Descending FlightAware ADS-B
Tue 09:28:49 AM 37.4812 -80.3986 117° Southeast 426 490 24,800 -832 Descending FlightAware ADS-B
Tue 09:29:59 AM 37.4187 -80.2490 117° Southeast 417 480 24,000 -457 Descending FlightAware ADS-B
Tue 09:30:34 AM 37.3871 -80.1741 117° Southeast 415 478 24,000  Level FlightAware ADS-B
Tue 09:31:25 AM 37.3395 -80.0656 121° Southeast 417 480 24,000 -630 Level FlightAware ADS-B
Tue 09:33:16 AM 37.2071 -79.8524 128° Southeast 414 476 22,300 -1,216 Descending FlightAware ADS-B
Tue 09:33:58 AM 37.1579 -79.7739 128° Southeast 410 472 20,900 -1,742 Descending FlightAware ADS-B
Tue 09:34:49 AM 37.1061 -79.6936 128° Southeast 409 471 19,600 -1,339 Descending Washington Center
Tue 09:35:50 AM 37.0447 -79.5967 128° Southeast 403 464 18,400 -843 Descending Washington Center
Tue 09:36:50 AM 36.9792 -79.4919 128° Southeast 393 452 17,900 -908 Descending Washington Center
Tue 09:37:49 AM 36.9033 -79.3842 131° Southeast 377 434 16,600 -1,059 Descending Washington Center
Tue 09:38:49 AM 36.8225 -79.3075 143° Southeast 377 434 15,800 -893 Descending Washington Center
Tue 09:39:50 AM 36.7350 -79.2308 145° Southeast 377 434 14,800 -942 Descending Washington Center
Tue 09:40:50 AM 36.6517 -79.1594 145° Southeast 377 434 13,900 -939 Descending Washington Center
Tue 09:41:45 AM 36.5703 -79.0911 146° Southeast 362 417 13,000 -807 Descending Washington Center
Tue 09:42:49 AM 36.4950 -79.0258 145° Southeast 367 422 12,300 -768 Descending Washington Center
Tue 09:43:50 AM 36.4175 -78.9553 144° Southeast 362 417 11,400 -958 Descending Washington Center
Tue 09:44:48 AM 36.3250 -78.9150 161° South 333 383 10,400 -850 Descending Washington Center
Tue 09:45:50 AM 36.2461 -78.8911 166° South 311 358 9,700 -689 Descending Washington Center
Tue 09:46:50 AM 36.1697 -78.8700 167° South 294 338 9,000 -661 Descending Washington Center
Tue 09:47:48 AM 36.0969 -78.8542 170° South 294 338 8,400 -559 Descending Washington Center
Tue 09:48:48 AM 36.0242 -78.8433 173° South 287 330 7,900 -329 Descending Washington Center
Tue 09:49:01 AM 36.0033 -78.8450 184° South 243 280 8,000 -295 Climbing Washington Center
Tue 09:49:49 AM 35.9592 -78.8561 192° South 260 299 7,600 -826 Descending Washington Center
Tue 09:50:50 AM 35.9100 -78.9028 218° Southwest 235 270 6,500 -738 Descending Washington Center
Tue 09:51:59 AM 35.8494 -78.9772 225° Southwest 231 266 6,000 -634 Descending Washington Center
Tue 09:53:12 AM 35.7956 -79.0364 222° Southwest 231 266 5,000 -992 Descending Washington Center
Tue 09:54:12 AM 35.7428 -78.9906 145° Southeast 211 243 3,800 -956 Descending Washington Center
Tue 09:55:05 AM 35.7547 -78.9372 75° East 174 200 3,200 -737 Descending Washington Center
Tue 09:56:06 AM 35.7850 -78.8950 49° Northeast 169 194 2,400 -797 Descending Washington Center
Tue 09:57:13 AM 35.8175 -78.8528 46° Northeast 158 182 1,500 -756 Descending Washington Center
Tue 09:58:13 AM 35.8456 -78.8206 43° Northeast 141 162 800 -700 Descending Washington Center

Login

Don't have an account? Register now (free) for customized features, flight alerts, and more!